Goffstown, NH (03045)

7:56 AM EDT on April 30, 2017 (GMT -0400)
Black Brook Road | | Change Station

Elev 602 ft 43.06 °N, 71.58 °W | Updated 4 minutes ago

Clear
Clear
42.6 °F
Feels Like 43 °F
N
1.0
Wind Variable Wind from North
Gusts 3.0 mph

Today
High -- | Low -- °F
--% Chance of Precip.
Yesterday
High -- | Low -- °F
Precip. -- in
Pressure 30.32 in
Visibility 10.0 miles
Clouds Scattered Clouds 25000 ft
Windchill 43 °F
Dew Point 28 °F
Humidity 57%
Rainfall 0.00 in
Snow Depth Not available.
5:41 AM 7:46 PM
Waxing Crescent, 22% visible
METAR KMHT 301153Z 32008KT 10SM SCT250 08/M06 A3028 RMK AO2 SLP266 T00831056 10139 20072 52029
Pressure 30.32 in
Visibility 10.0 miles
Clouds Scattered Clouds 25000 ft
Windchill 43 °F
Dew Point 28 °F
Humidity 57%
Rainfall 0.00 in
Snow Depth Not available.
5:41 AM 7:46 PM
Waxing Crescent, 22% visible
METAR KMHT 301153Z 32008KT 10SM SCT250 08/M06 A3028 RMK AO2 SLP266 T00831056 10139 20072 52029

Get Severe Weather Alerts

Thanks for signing up!

Be on the lookout for a verification email in your inbox.

You'll start receiving the daily forecast at 8 AM.

×

10-Day Weather Forecast

Almanac

Astronomy

Apr. 30, 2017 Rise Set
Actual Time
Civil Twilight
Nautical Twilight
Astronomical Twilight
Moon
Length of Visible Light
Length of Day
Tomorrow will be .
, % of the Moon is Illuminated

Today's Extremes

State Highs State Lows

Community

WunderPhotos

WunderBlog® & News

Nearby

Air Quality

  Air Quality AQ Index Pollutant
Not available.

Snow Depth

Station Depth Elevation

Earthquake Activity

City Distance Mag. Time & Date
Minimum magnitude displayed is 2.5.

Coastal Water Temperatures

Place Temperature

Stations

Nearby Weather Stations

Station Location Temp. Windchill Dew Point Humidity Wind Precip. Elev Updated Type
                   

Watches & Warnings

There are currently no watches in effect.